Time;durP1;ratioP1;P1;durP2;ratioP2;P2;SDS_P1;SDS_P2;PMS_P1;PMS_P2;Temp;Humidity;BMP_temperature;BMP_pressure;BME280_temperature;BME280_humidity;BME280_pressure;Samples;Min_cycle;Max_cycle;Signal;HPM_P1;HPM_P2
2022/10/26 00:00:13;;;;;;;35.85;7.43;;;;;;;;;;5010384;28;20022;-57
2022/10/26 00:02:40;;;;;;;49.17;8.48;;;;;;;;;;5006157;28;20453;-62
2022/10/26 00:05:07;;;;;;;48.60;9.98;;;;;;;;;;5011428;28;20041;-62
2022/10/26 00:07:34;;;;;;;50.75;10.95;;;;;;;;;;5011393;28;20064;-62
2022/10/26 00:10:01;;;;;;;70.72;16.83;;;;;;;;;;5012089;28;20018;-63
2022/10/26 00:12:28;;;;;;;74.57;18.15;;;;;;;;;;5012773;28;20103;-63
2022/10/26 00:14:54;;;;;;;60.35;18.05;;;;;;;;;;5011408;28;20034;-61
2022/10/26 00:17:21;;;;;;;61.10;19.30;;;;;;;;;;5012407;28;20057;-62
2022/10/26 00:19:48;;;;;;;74.72;22.50;;;;;;;;;;5012930;28;20030;-61
2022/10/26 00:22:15;;;;;;;93.97;27.88;;;;;;;;;;5012555;28;20044;-62
2022/10/26 00:24:42;;;;;;;94.55;27.90;;;;;;;;;;5009728;28;20029;-63
2022/10/26 00:27:09;;;;;;;87.28;26.13;;;;;;;;;;5012689;28;20028;-65
2022/10/26 00:29:36;;;;;;;88.53;26.73;;;;;;;;;;5012439;28;20038;-61
2022/10/26 00:32:03;;;;;;;91.15;26.15;;;;;;;;;;5012506;28;20022;-61
2022/10/26 00:34:30;;;;;;;94.15;26.25;;;;;;;;;;5011321;28;20026;-61
2022/10/26 00:36:57;;;;;;;96.00;25.83;;;;;;;;;;5011541;28;20025;-63
2022/10/26 00:39:24;;;;;;;92.13;24.38;;;;;;;;;;5011492;28;20058;-62
2022/10/26 00:41:51;;;;;;;83.93;24.17;;;;;;;;;;5010853;28;20125;-61
2022/10/26 00:44:36;;;;;;;84.55;24.95;;;;;;;;;;5009149;28;20057;-61
2022/10/26 00:47:04;;;;;;;82.65;24.67;;;;;;;;;;5010881;28;20568;-59
2022/10/26 00:49:31;;;;;;;96.28;25.45;;;;;;;;;;4995051;28;20394;-61
2022/10/26 00:51:58;;;;;;;95.97;24.23;;;;;;;;;;5012595;28;20034;-61
2022/10/26 00:54:25;;;;;;;104.07;25.23;;;;;;;;;;5012546;28;20025;-60
2022/10/26 00:56:54;;;;;;;79.70;23.17;;;;;;;;;;5011789;28;20026;-60
2022/10/26 00:59:22;;;;;;;61.85;21.08;;;;;;;;;;5012058;28;20100;-59
2022/10/26 01:01:50;;;;;;;74.07;21.90;;;;;;;;;;5013619;28;20033;-56
2022/10/26 01:04:18;;;;;;;75.28;20.90;;;;;;;;;;5013361;28;20112;-59
2022/10/26 01:06:45;;;;;;;65.90;21.17;;;;;;;;;;5013371;28;20081;-58
2022/10/26 01:09:12;;;;;;;73.75;21.10;;;;;;;;;;5011595;28;20040;-59
2022/10/26 01:11:39;;;;;;;68.88;20.58;;;;;;;;;;5011053;28;20033;-59
2022/10/26 01:14:07;;;;;;;72.20;21.63;;;;;;;;;;5011110;28;20280;-59
2022/10/26 01:16:43;;;;;;;75.53;19.75;;;;;;;;;;5011668;28;20112;-59
2022/10/26 01:19:28;;;;;;;69.15;19.30;;;;;;;;;;5010849;28;20498;-65
2022/10/26 01:21:55;;;;;;;62.22;18.88;;;;;;;;;;5011480;28;20116;-58
2022/10/26 01:24:34;;;;;;;63.42;18.98;;;;;;;;;;5010845;28;20026;-60
2022/10/26 01:27:04;;;;;;;61.78;18.08;;;;;;;;;;5009770;28;20552;-58
2022/10/26 01:29:46;;;;;;;61.30;18.17;;;;;;;;;;5006638;28;20052;-58
2022/10/26 01:32:33;;;;;;;55.28;18.02;;;;;;;;;;5008948;28;20026;-59
2022/10/26 01:35:06;;;;;;;58.15;17.45;;;;;;;;;;5009684;28;20033;-59
2022/10/26 01:37:36;;;;;;;54.13;17.20;;;;;;;;;;5009984;28;20092;-59
2022/10/26 01:40:09;;;;;;;53.85;17.52;;;;;;;;;;5006833;28;20079;-59
2022/10/26 01:42:40;;;;;;;69.05;16.75;;;;;;;;;;4990673;28;20714;-57
2022/10/26 01:45:09;;;;;;;52.85;15.93;;;;;;;;;;5011224;28;20030;-58
2022/10/26 01:47:37;;;;;;;49.55;15.95;;;;;;;;;;5011525;28;20108;-59
2022/10/26 01:50:04;;;;;;;53.05;15.63;;;;;;;;;;5011067;28;20022;-59
2022/10/26 01:52:31;;;;;;;43.95;15.52;;;;;;;;;;5010159;28;20030;-60
2022/10/26 01:55:02;;;;;;;40.38;14.65;;;;;;;;;;5007267;28;20068;-59
2022/10/26 01:57:33;;;;;;;39.13;14.32;;;;;;;;;;5008631;28;20025;-59
2022/10/26 02:00:06;;;;;;;42.03;14.30;;;;;;;;;;5011618;28;20026;-58
2022/10/26 02:02:56;;;;;;;48.15;14.50;;;;;;;;;;4993959;28;20034;-60
2022/10/26 02:05:30;;;;;;;40.92;13.93;;;;;;;;;;5011273;28;20045;-59
2022/10/26 02:08:16;;;;;;;49.63;13.15;;;;;;;;;;5011387;28;20038;-58
2022/10/26 02:10:50;;;;;;;43.72;12.95;;;;;;;;;;5011660;28;20439;-59
2022/10/26 02:13:18;;;;;;;39.13;12.20;;;;;;;;;;5015376;28;20111;-59
2022/10/26 02:15:49;;;;;;;37.65;12.93;;;;;;;;;;5031210;28;20025;-59
2022/10/26 02:18:36;;;;;;;37.90;13.35;;;;;;;;;;5032387;28;20116;-58
2022/10/26 02:21:12;;;;;;;37.08;12.60;;;;;;;;;;5005262;28;20052;-59
2022/10/26 02:23:42;;;;;;;40.95;11.82;;;;;;;;;;5018885;28;20030;-59
2022/10/26 02:26:12;;;;;;;31.55;11.10;;;;;;;;;;5001167;28;20041;-59
2022/10/26 02:28:41;;;;;;;31.48;10.88;;;;;;;;;;5028649;28;20030;-59
2022/10/26 02:31:09;;;;;;;29.10;11.27;;;;;;;;;;4993956;28;20030;-59
2022/10/26 02:33:39;;;;;;;34.90;11.88;;;;;;;;;;4992818;28;20053;-59
2022/10/26 02:36:09;;;;;;;30.85;11.25;;;;;;;;;;5028763;28;20101;-58
2022/10/26 02:38:38;;;;;;;28.55;9.73;;;;;;;;;;5014210;28;20049;-60
2022/10/26 02:41:07;;;;;;;29.50;10.93;;;;;;;;;;5031782;28;20384;-57
2022/10/26 02:43:38;;;;;;;28.80;10.45;;;;;;;;;;5012914;28;20038;-65
2022/10/26 02:46:09;;;;;;;22.55;9.30;;;;;;;;;;5026282;28;20044;-59
2022/10/26 02:48:36;;;;;;;27.35;10.10;;;;;;;;;;5031785;28;20048;-60
2022/10/26 02:51:09;;;;;;;24.85;9.65;;;;;;;;;;5031749;28;20561;-57
2022/10/26 02:53:47;;;;;;;23.45;8.90;;;;;;;;;;5032027;28;20116;-59
2022/10/26 02:56:17;;;;;;;24.92;8.43;;;;;;;;;;5007865;28;20026;-59
2022/10/26 02:58:46;;;;;;;22.88;7.97;;;;;;;;;;5029473;28;20025;-58
2022/10/26 03:01:14;;;;;;;22.08;8.15;;;;;;;;;;5031898;28;20534;-58
2022/10/26 03:03:41;;;;;;;23.35;8.38;;;;;;;;;;5000643;28;20074;-57
2022/10/26 03:06:08;;;;;;;23.15;7.60;;;;;;;;;;5001908;28;20049;-59
2022/10/26 03:08:35;;;;;;;22.83;7.68;;;;;;;;;;5023383;28;20100;-59
2022/10/26 03:11:02;;;;;;;17.33;7.13;;;;;;;;;;5031785;28;20088;-58
2022/10/26 03:13:28;;;;;;;17.05;6.70;;;;;;;;;;5017896;28;20036;-57
2022/10/26 03:15:56;;;;;;;17.67;7.10;;;;;;;;;;5013974;28;20032;-58
2022/10/26 03:18:23;;;;;;;17.48;7.20;;;;;;;;;;5030820;28;20503;-58
2022/10/26 03:20:50;;;;;;;16.73;6.60;;;;;;;;;;5031455;28;20028;-55
2022/10/26 03:23:17;;;;;;;17.00;6.28;;;;;;;;;;5010261;28;20041;-57
2022/10/26 03:25:44;;;;;;;16.02;5.72;;;;;;;;;;5019776;28;20049;-58
2022/10/26 03:28:11;;;;;;;16.88;6.32;;;;;;;;;;4992305;28;20026;-58
2022/10/26 03:30:38;;;;;;;16.63;5.80;;;;;;;;;;5022592;28;20026;-60
2022/10/26 03:33:05;;;;;;;15.88;6.20;;;;;;;;;;5031692;28;20411;-58
2022/10/26 03:35:32;;;;;;;18.00;6.03;;;;;;;;;;5031535;28;20081;-58
2022/10/26 03:37:58;;;;;;;15.98;5.95;;;;;;;;;;5019831;28;20030;-58
2022/10/26 03:40:25;;;;;;;12.73;5.35;;;;;;;;;;4992212;28;20046;-59
2022/10/26 03:42:52;;;;;;;12.85;5.72;;;;;;;;;;5019827;28;20026;-57
2022/10/26 03:45:19;;;;;;;9.68;5.10;;;;;;;;;;5012537;28;20395;-57
2022/10/26 03:47:47;;;;;;;12.88;5.25;;;;;;;;;;5031220;28;20268;-57
2022/10/26 03:50:15;;;;;;;11.65;5.32;;;;;;;;;;5031537;28;20079;-59
2022/10/26 03:52:42;;;;;;;12.20;5.13;;;;;;;;;;5029245;28;20033;-59
2022/10/26 03:55:09;;;;;;;14.30;5.40;;;;;;;;;;4999988;28;20029;-58
2022/10/26 03:57:43;;;;;;;12.77;5.20;;;;;;;;;;5010789;28;20063;-59
2022/10/26 04:00:14;;;;;;;11.98;4.75;;;;;;;;;;4998589;28;20487;-58
2022/10/26 04:02:50;;;;;;;10.95;4.70;;;;;;;;;;4992105;28;20030;-58
2022/10/26 04:05:17;;;;;;;12.10;5.00;;;;;;;;;;5024713;28;20053;-57
2022/10/26 04:07:44;;;;;;;12.98;4.85;;;;;;;;;;5013861;28;20137;-58
2022/10/26 04:10:11;;;;;;;10.30;4.30;;;;;;;;;;5019473;28;20033;-59
2022/10/26 04:12:38;;;;;;;11.68;4.63;;;;;;;;;;4999043;28;20026;-58
2022/10/26 04:15:06;;;;;;;12.50;4.85;;;;;;;;;;5024865;28;20537;-55
2022/10/26 04:17:33;;;;;;;9.75;4.38;;;;;;;;;;4993070;28;20049;-58
2022/10/26 04:19:59;;;;;;;8.75;4.60;;;;;;;;;;5018576;28;20112;-57
2022/10/26 04:22:26;;;;;;;12.82;4.43;;;;;;;;;;5034803;28;20029;-57
2022/10/26 04:24:53;;;;;;;10.35;4.68;;;;;;;;;;5034660;28;20049;-57
2022/10/26 04:27:21;;;;;;;8.95;3.90;;;;;;;;;;5009081;28;20033;-58
2022/10/26 04:29:48;;;;;;;11.35;4.47;;;;;;;;;;5027628;28;20036;-58
2022/10/26 04:32:14;;;;;;;9.70;4.50;;;;;;;;;;5024435;28;20504;-59
2022/10/26 04:34:41;;;;;;;8.35;3.70;;;;;;;;;;5006349;28;20498;-56
2022/10/26 04:37:08;;;;;;;10.48;4.53;;;;;;;;;;5031985;28;20752;-58
2022/10/26 04:39:35;;;;;;;7.28;3.55;;;;;;;;;;5034390;28;20049;-57
2022/10/26 04:42:02;;;;;;;10.40;3.95;;;;;;;;;;5034078;28;20049;-53
2022/10/26 04:44:29;;;;;;;7.82;3.80;;;;;;;;;;5034378;28;20041;-53
2022/10/26 04:46:56;;;;;;;8.35;3.88;;;;;;;;;;5034129;28;20037;-60
2022/10/26 04:49:23;;;;;;;8.80;3.60;;;;;;;;;;5007095;28;20021;-59
2022/10/26 04:51:50;;;;;;;6.95;3.42;;;;;;;;;;5034250;28;20025;-58
2022/10/26 04:54:17;;;;;;;7.95;3.65;;;;;;;;;;5025195;28;20034;-58
2022/10/26 04:56:44;;;;;;;9.48;4.03;;;;;;;;;;5012979;28;20076;-58
2022/10/26 04:59:11;;;;;;;7.70;3.08;;;;;;;;;;5034068;28;20060;-58
2022/10/26 05:01:37;;;;;;;6.05;3.08;;;;;;;;;;5034003;28;20483;-57
2022/10/26 05:04:04;;;;;;;7.65;2.97;;;;;;;;;;5033985;28;20029;-56
2022/10/26 05:06:31;;;;;;;6.22;3.20;;;;;;;;;;5008453;28;20046;-59
2022/10/26 05:08:58;;;;;;;8.35;3.40;;;;;;;;;;5004233;28;20029;-58
2022/10/26 05:11:25;;;;;;;7.30;3.20;;;;;;;;;;5033880;28;20083;-55
2022/10/26 05:13:52;;;;;;;7.53;3.08;;;;;;;;;;5033563;28;20396;-58
2022/10/26 05:16:19;;;;;;;6.20;3.00;;;;;;;;;;5024350;28;20025;-58
2022/10/26 05:18:50;;;;;;;5.00;2.83;;;;;;;;;;5029315;28;20357;-56
2022/10/26 05:21:20;;;;;;;7.70;2.80;;;;;;;;;;5033808;28;20033;-55
2022/10/26 05:23:54;;;;;;;5.28;2.92;;;;;;;;;;5005930;28;20026;-58
2022/10/26 05:26:21;;;;;;;5.13;2.65;;;;;;;;;;5018092;28;20559;-58
2022/10/26 05:28:48;;;;;;;5.75;2.95;;;;;;;;;;5013091;28;20029;-58
2022/10/26 05:31:15;;;;;;;5.78;2.88;;;;;;;;;;5013026;28;20053;-57
2022/10/26 05:33:42;;;;;;;6.00;2.67;;;;;;;;;;5013079;28;20030;-58
2022/10/26 05:36:09;;;;;;;6.25;2.95;;;;;;;;;;4995365;28;20087;-56
2022/10/26 05:38:36;;;;;;;5.25;2.30;;;;;;;;;;5012973;28;20022;-58
2022/10/26 05:41:03;;;;;;;7.28;3.13;;;;;;;;;;5012731;28;20495;-58
2022/10/26 05:43:30;;;;;;;4.30;2.17;;;;;;;;;;5012961;28;20026;-57
2022/10/26 05:45:57;;;;;;;4.85;2.47;;;;;;;;;;5012835;28;20081;-57
2022/10/26 05:48:24;;;;;;;4.93;2.42;;;;;;;;;;4995217;28;20502;-53
2022/10/26 05:50:51;;;;;;;5.80;2.35;;;;;;;;;;5012760;28;20033;-59
2022/10/26 05:53:18;;;;;;;6.22;2.40;;;;;;;;;;5012881;28;20026;-58
2022/10/26 05:55:46;;;;;;;5.07;2.20;;;;;;;;;;5012672;28;20022;-58
2022/10/26 05:58:14;;;;;;;4.47;2.20;;;;;;;;;;5011158;28;20022;-57
2022/10/26 06:00:52;;;;;;;4.10;2.33;;;;;;;;;;4992599;28;20022;-61
2022/10/26 06:03:39;;;;;;;4.22;2.13;;;;;;;;;;5012812;28;20056;-56
2022/10/26 06:06:07;;;;;;;4.57;2.08;;;;;;;;;;4996212;28;20403;-59
2022/10/26 06:08:34;;;;;;;5.43;2.00;;;;;;;;;;5012476;28;20360;-58
2022/10/26 06:11:01;;;;;;;4.93;1.80;;;;;;;;;;5012720;28;20050;-56
2022/10/26 06:13:29;;;;;;;3.83;1.85;;;;;;;;;;5015570;28;20037;-58
2022/10/26 06:16:07;;;;;;;3.50;1.88;;;;;;;;;;5032661;28;20084;-56
2022/10/26 06:18:37;;;;;;;3.90;1.70;;;;;;;;;;5004696;28;20034;-57
2022/10/26 06:21:07;;;;;;;4.43;1.58;;;;;;;;;;5032575;28;20033;-58
2022/10/26 06:23:53;;;;;;;4.18;1.85;;;;;;;;;;5005074;28;20472;-58
2022/10/26 06:26:20;;;;;;;4.68;1.90;;;;;;;;;;5011268;28;20034;-57
2022/10/26 06:28:57;;;;;;;3.92;1.73;;;;;;;;;;5026171;28;20128;-52
2022/10/26 06:31:24;;;;;;;3.50;1.70;;;;;;;;;;5032407;28;20021;-59
2022/10/26 06:33:54;;;;;;;2.53;1.40;;;;;;;;;;5032264;28;20022;-58
2022/10/26 06:36:22;;;;;;;3.40;1.38;;;;;;;;;;5032376;28;20026;-57
2022/10/26 06:38:52;;;;;;;2.83;1.30;;;;;;;;;;5029156;28;20398;-57
2022/10/26 06:41:21;;;;;;;2.47;1.20;;;;;;;;;;5007796;28;20045;-58
2022/10/26 06:43:48;;;;;;;2.65;1.23;;;;;;;;;;5003739;28;20232;-54
2022/10/26 06:46:32;;;;;;;3.13;1.33;;;;;;;;;;4992841;28;20480;-58
2022/10/26 06:49:05;;;;;;;3.17;1.48;;;;;;;;;;5020081;28;20029;-57
2022/10/26 06:51:35;;;;;;;2.55;1.10;;;;;;;;;;4992861;28;20030;-59
2022/10/26 06:54:28;;;;;;;2.42;1.35;;;;;;;;;;5021645;28;20030;-55
2022/10/26 06:56:55;;;;;;;3.08;1.38;;;;;;;;;;5000154;28;20041;-51
2022/10/26 06:59:35;;;;;;;2.35;1.13;;;;;;;;;;5031824;28;20032;-57
2022/10/26 07:02:02;;;;;;;1.73;1.10;;;;;;;;;;5031812;28;20024;-55
2022/10/26 07:04:29;;;;;;;1.88;1.20;;;;;;;;;;5012076;28;20077;-58
2022/10/26 07:06:56;;;;;;;1.92;1.13;;;;;;;;;;5024430;28;20415;-52
2022/10/26 07:09:23;;;;;;;2.50;1.17;;;;;;;;;;5031711;28;20060;-59
2022/10/26 07:11:50;;;;;;;3.40;1.10;;;;;;;;;;5031700;28;20036;-59
2022/10/26 07:14:17;;;;;;;2.30;1.27;;;;;;;;;;5025368;28;20479;-58
2022/10/26 07:16:44;;;;;;;1.70;0.90;;;;;;;;;;5012220;28;20025;-59
2022/10/26 07:19:11;;;;;;;1.92;1.00;;;;;;;;;;5030715;28;20116;-57
2022/10/26 07:21:38;;;;;;;3.08;1.20;;;;;;;;;;5031769;28;20176;-58
2022/10/26 07:24:05;;;;;;;1.40;0.95;;;;;;;;;;5003946;28;20026;-59
2022/10/26 07:26:32;;;;;;;2.42;1.15;;;;;;;;;;5031675;28;20034;-57
2022/10/26 07:28:58;;;;;;;2.38;0.90;;;;;;;;;;5028113;28;20033;-58
2022/10/26 07:31:25;;;;;;;2.35;1.00;;;;;;;;;;5008043;28;20029;-56
2022/10/26 07:33:55;;;;;;;1.50;0.90;;;;;;;;;;5031524;28;20053;-59
2022/10/26 07:36:22;;;;;;;2.17;1.10;;;;;;;;;;5018411;28;20021;-57
2022/10/26 07:38:53;;;;;;;2.28;1.23;;;;;;;;;;5006316;28;20038;-55
2022/10/26 07:41:20;;;;;;;2.10;1.10;;;;;;;;;;5002674;28;20049;-56
2022/10/26 07:43:49;;;;;;;2.53;0.85;;;;;;;;;;5031553;28;20033;-55
2022/10/26 07:46:17;;;;;;;2.10;0.90;;;;;;;;;;5031259;28;20037;-55
2022/10/26 07:48:44;;;;;;;1.75;0.98;;;;;;;;;;5031323;28;20484;-59
2022/10/26 07:51:11;;;;;;;1.52;1.05;;;;;;;;;;5031415;28;20025;-57
2022/10/26 07:53:38;;;;;;;2.00;1.00;;;;;;;;;;5034263;28;20021;-58
2022/10/26 07:56:05;;;;;;;1.02;0.77;;;;;;;;;;5013830;28;20061;-54
2022/10/26 07:58:32;;;;;;;1.92;0.90;;;;;;;;;;5023349;28;20031;-58
2022/10/26 08:01:05;;;;;;;0.90;0.77;;;;;;;;;;5014098;28;20033;-57
2022/10/26 08:03:32;;;;;;;2.10;1.00;;;;;;;;;;5035143;28;20559;-60
2022/10/26 08:05:59;;;;;;;1.23;0.82;;;;;;;;;;5035033;28;20494;-57
2022/10/26 08:08:26;;;;;;;1.58;0.70;;;;;;;;;;5021030;28;20048;-54
2022/10/26 08:10:53;;;;;;;1.83;0.88;;;;;;;;;;5021738;28;20045;-57
2022/10/26 08:13:20;;;;;;;1.00;0.60;;;;;;;;;;4995752;28;20030;-59
2022/10/26 08:15:47;;;;;;;2.15;0.95;;;;;;;;;;5005486;28;20486;-58
2022/10/26 08:18:14;;;;;;;1.30;0.80;;;;;;;;;;5012605;28;20035;-58
2022/10/26 08:20:41;;;;;;;1.52;0.93;;;;;;;;;;5029908;28;20525;-58
2022/10/26 08:23:08;;;;;;;1.98;0.73;;;;;;;;;;5015806;28;20492;-53
2022/10/26 08:25:37;;;;;;;1.17;0.80;;;;;;;;;;5027007;28;20050;-58
2022/10/26 08:28:04;;;;;;;1.40;0.60;;;;;;;;;;5034542;28;20083;-59
2022/10/26 08:30:32;;;;;;;1.40;0.90;;;;;;;;;;5034427;28;20045;-56
2022/10/26 08:33:03;;;;;;;1.35;0.77;;;;;;;;;;5021346;28;20096;-58
2022/10/26 08:35:30;;;;;;;1.73;0.90;;;;;;;;;;4995174;28;20077;-56
2022/10/26 08:37:57;;;;;;;2.75;0.70;;;;;;;;;;5006073;28;20087;-59
2022/10/26 08:40:31;;;;;;;2.40;0.90;;;;;;;;;;5034246;28;20054;-58
2022/10/26 08:43:03;;;;;;;1.05;0.70;;;;;;;;;;5002406;28;20025;-58
2022/10/26 08:45:39;;;;;;;0.85;0.70;;;;;;;;;;5005039;28;20038;-58
2022/10/26 08:48:12;;;;;;;1.25;0.70;;;;;;;;;;5011655;28;20037;-53
2022/10/26 08:50:44;;;;;;;1.65;0.73;;;;;;;;;;5034161;28;20037;-58
2022/10/26 08:53:20;;;;;;;1.08;0.77;;;;;;;;;;5034246;28;20044;-59
2022/10/26 08:55:49;;;;;;;2.22;0.80;;;;;;;;;;5011484;28;20038;-57
2022/10/26 08:58:18;;;;;;;1.20;0.63;;;;;;;;;;5029005;28;20040;-58
2022/10/26 09:00:47;;;;;;;1.20;0.63;;;;;;;;;;5026919;28;20044;-57
2022/10/26 09:03:15;;;;;;;1.15;0.70;;;;;;;;;;5014104;28;20038;-57
2022/10/26 09:05:54;;;;;;;1.20;0.68;;;;;;;;;;5019318;28;20063;-57
2022/10/26 09:08:30;;;;;;;0.70;0.55;;;;;;;;;;5033802;28;20483;-55
2022/10/26 09:10:57;;;;;;;1.02;0.60;;;;;;;;;;5008953;28;20037;-55
2022/10/26 09:13:37;;;;;;;0.90;0.60;;;;;;;;;;5033761;28;20470;-53
2022/10/26 09:16:14;;;;;;;1.00;0.60;;;;;;;;;;5009300;28;20030;-53
2022/10/26 09:18:52;;;;;;;0.60;0.50;;;;;;;;;;5031406;28;20826;-58
2022/10/26 09:21:37;;;;;;;1.70;0.77;;;;;;;;;;5011469;28;20038;-58
2022/10/26 09:24:09;;;;;;;0.88;0.50;;;;;;;;;;5033535;28;20036;-58
2022/10/26 09:26:57;;;;;;;1.48;0.88;;;;;;;;;;5013390;28;20455;-58
2022/10/26 09:29:29;;;;;;;0.95;0.50;;;;;;;;;;5017816;28;20088;-57
2022/10/26 09:31:57;;;;;;;0.85;0.50;;;;;;;;;;5033472;28;20498;-57
2022/10/26 09:34:28;;;;;;;1.33;0.75;;;;;;;;;;5033208;28;20036;-58
2022/10/26 09:36:55;;;;;;;1.00;0.60;;;;;;;;;;5015986;28;20025;-58
2022/10/26 09:39:36;;;;;;;1.20;0.80;;;;;;;;;;5026638;28;20034;-57
2022/10/26 09:42:12;;;;;;;0.85;0.57;;;;;;;;;;4993575;28;20393;-58
2022/10/26 09:45:00;;;;;;;1.10;0.65;;;;;;;;;;5030792;28;20105;-56
2022/10/26 09:47:40;;;;;;;1.55;0.73;;;;;;;;;;5033066;28;20041;-55
2022/10/26 09:50:17;;;;;;;1.10;0.60;;;;;;;;;;5001478;28;20041;-59
2022/10/26 09:52:44;;;;;;;0.75;0.50;;;;;;;;;;5025764;28;20040;-58
2022/10/26 09:55:12;;;;;;;1.50;0.60;;;;;;;;;;5001557;28;20027;-58
2022/10/26 09:57:43;;;;;;;2.20;0.60;;;;;;;;;;5012820;28;20045;-58
2022/10/26 10:00:14;;;;;;;2.47;0.80;;;;;;;;;;5032793;28;20025;-58
2022/10/26 10:02:43;;;;;;;0.60;0.50;;;;;;;;;;5032878;28;20022;-58
2022/10/26 10:05:30;;;;;;;1.55;0.60;;;;;;;;;;5004999;28;20034;-58
2022/10/26 10:08:15;;;;;;;1.35;0.77;;;;;;;;;;5032722;28;20033;-56
2022/10/26 10:10:59;;;;;;;1.35;0.60;;;;;;;;;;5009736;28;20034;-58
2022/10/26 10:13:27;;;;;;;1.02;0.68;;;;;;;;;;5026582;28;20533;-56
2022/10/26 10:16:12;;;;;;;2.08;0.70;;;;;;;;;;5032350;28;20029;-57
2022/10/26 10:18:41;;;;;;;2.08;0.63;;;;;;;;;;5030993;28;20095;-58
2022/10/26 10:21:09;;;;;;;1.60;0.63;;;;;;;;;;5007470;28;20037;-57
2022/10/26 10:23:37;;;;;;;1.10;0.68;;;;;;;;;;5032428;28;20496;-57
2022/10/26 10:26:06;;;;;;;1.40;0.65;;;;;;;;;;5032292;28;20033;-58
2022/10/26 10:28:33;;;;;;;1.08;0.63;;;;;;;;;;5008111;28;20088;-58
2022/10/26 10:31:02;;;;;;;1.23;0.60;;;;;;;;;;5012298;28;20033;-56
2022/10/26 10:33:39;;;;;;;1.65;0.60;;;;;;;;;;5012689;28;20033;-58
2022/10/26 10:36:11;;;;;;;0.47;0.40;;;;;;;;;;5022052;28;20029;-57
2022/10/26 10:38:40;;;;;;;1.63;0.75;;;;;;;;;;4992825;28;20046;-58
2022/10/26 10:41:14;;;;;;;1.25;0.50;;;;;;;;;;5027527;28;20392;-57
2022/10/26 10:43:46;;;;;;;2.33;0.60;;;;;;;;;;5010864;28;20062;-58
2022/10/26 10:46:18;;;;;;;1.17;0.55;;;;;;;;;;4999855;28;20120;-58
2022/10/26 10:48:48;;;;;;;1.63;0.60;;;;;;;;;;5032089;28;20033;-58
2022/10/26 10:51:19;;;;;;;0.98;0.60;;;;;;;;;;5032000;28;20545;-58
2022/10/26 10:53:58;;;;;;;1.20;0.70;;;;;;;;;;5016022;28;20030;-55
2022/10/26 10:56:25;;;;;;;1.85;0.55;;;;;;;;;;5012228;28;20026;-59
2022/10/26 10:59:02;;;;;;;1.52;0.70;;;;;;;;;;5025558;28;20065;-58
2022/10/26 11:01:36;;;;;;;1.08;0.57;;;;;;;;;;5010414;28;20080;-55
2022/10/26 11:04:13;;;;;;;2.47;0.50;;;;;;;;;;5023757;28;20048;-59
2022/10/26 11:06:41;;;;;;;1.02;0.63;;;;;;;;;;5031604;28;20034;-58
2022/10/26 11:09:11;;;;;;;1.42;0.65;;;;;;;;;;5031718;28;20029;-58
2022/10/26 11:11:58;;;;;;;1.58;0.70;;;;;;;;;;5023868;28;20037;-58
2022/10/26 11:14:51;;;;;;;2.55;0.50;;;;;;;;;;5018330;28;20045;-58
2022/10/26 11:17:26;;;;;;;0.80;0.60;;;;;;;;;;4994384;28;20071;-58
2022/10/26 11:20:09;;;;;;;2.55;0.80;;;;;;;;;;5031598;28;20041;-58
2022/10/26 11:22:42;;;;;;;5.53;1.17;;;;;;;;;;5006574;28;20183;-55
2022/10/26 11:25:16;;;;;;;3.50;1.10;;;;;;;;;;4995652;28;20034;-58
2022/10/26 11:27:57;;;;;;;3.20;1.20;;;;;;;;;;5026078;28;20041;-59
2022/10/26 11:30:25;;;;;;;3.10;1.00;;;;;;;;;;5035748;28;20056;-57
2022/10/26 11:32:52;;;;;;;1.98;0.90;;;;;;;;;;5007848;28;20102;-60
2022/10/26 11:35:26;;;;;;;10.93;1.30;;;;;;;;;;5035491;28;20040;-60
2022/10/26 11:38:03;;;;;;;2.47;1.13;;;;;;;;;;5000313;28;20029;-61
2022/10/26 11:40:30;;;;;;;6.15;1.40;;;;;;;;;;5016784;28;20682;-61
2022/10/26 11:43:14;;;;;;;2.42;1.20;;;;;;;;;;5021426;28;20034;-58
2022/10/26 11:45:42;;;;;;;1.88;1.08;;;;;;;;;;5035241;28;20183;-59
2022/10/26 11:48:21;;;;;;;3.25;1.30;;;;;;;;;;5033636;28;20078;-59
2022/10/26 11:50:57;;;;;;;3.75;1.13;;;;;;;;;;5035194;28;20029;-60
2022/10/26 11:53:37;;;;;;;2.72;1.10;;;;;;;;;;5025868;28;20098;-59
2022/10/26 11:56:05;;;;;;;2.15;1.00;;;;;;;;;;5006016;28;20033;-63
2022/10/26 11:58:32;;;;;;;3.85;1.25;;;;;;;;;;5025179;28;20500;-60
2022/10/26 12:01:04;;;;;;;4.70;1.23;;;;;;;;;;5014056;28;20033;-61
2022/10/26 12:03:36;;;;;;;2.35;1.25;;;;;;;;;;5034945;28;20033;-61
2022/10/26 12:06:04;;;;;;;2.63;1.00;;;;;;;;;;5016998;28;20049;-68
2022/10/26 12:08:33;;;;;;;6.18;1.35;;;;;;;;;;5024589;28;20040;-63
2022/10/26 12:11:03;;;;;;;2.13;1.20;;;;;;;;;;5034676;28;20018;-60
2022/10/26 12:13:38;;;;;;;2.70;1.00;;;;;;;;;;5034832;28;20040;-62
2022/10/26 12:16:37;;;;;;;4.03;1.10;;;;;;;;;;5028506;28;20021;-61
2022/10/26 12:19:12;;;;;;;4.05;1.20;;;;;;;;;;4960882;28;20143;-60
2022/10/26 12:21:41;;;;;;;3.17;1.00;;;;;;;;;;5024916;28;20028;-61
2022/10/26 12:24:23;;;;;;;5.35;1.20;;;;;;;;;;5028851;28;20046;-59
2022/10/26 12:26:53;;;;;;;13.73;2.00;;;;;;;;;;4994438;28;20038;-60
2022/10/26 12:29:35;;;;;;;5.72;1.30;;;;;;;;;;5025301;28;20095;-62
2022/10/26 12:32:03;;;;;;;6.22;1.23;;;;;;;;;;5012635;28;20041;-60
2022/10/26 12:34:30;;;;;;;6.95;1.42;;;;;;;;;;5014356;28;20439;-59
2022/10/26 12:36:56;;;;;;;8.23;1.45;;;;;;;;;;5017049;28;20021;-61
2022/10/26 12:39:37;;;;;;;3.38;1.38;;;;;;;;;;5031357;28;20483;-59
2022/10/26 12:42:28;;;;;;;3.13;1.20;;;;;;;;;;5011965;28;20057;-59
2022/10/26 12:44:54;;;;;;;5.50;1.25;;;;;;;;;;4997253;28;20034;-59
2022/10/26 12:47:45;;;;;;;6.40;1.33;;;;;;;;;;4994164;28;20049;-59
2022/10/26 12:50:11;;;;;;;3.55;1.23;;;;;;;;;;5006272;28;20050;-61
2022/10/26 12:52:43;;;;;;;7.97;1.20;;;;;;;;;;5027362;28;20056;-61
2022/10/26 12:55:10;;;;;;;4.25;1.20;;;;;;;;;;5010818;28;20037;-61
2022/10/26 12:57:53;;;;;;;6.30;1.15;;;;;;;;;;5013214;28;20034;-58
2022/10/26 13:00:24;;;;;;;4.53;1.13;;;;;;;;;;5011858;28;20081;-61
2022/10/26 13:03:09;;;;;;;6.53;0.98;;;;;;;;;;5011268;28;20026;-63
2022/10/26 13:05:56;;;;;;;3.95;0.90;;;;;;;;;;5016762;28;20041;-60
2022/10/26 13:08:24;;;;;;;4.05;0.88;;;;;;;;;;5006727;28;20069;-60
2022/10/26 13:11:13;;;;;;;2.38;0.82;;;;;;;;;;4994814;28;20037;-60
2022/10/26 13:13:41;;;;;;;3.42;1.15;;;;;;;;;;5012622;28;20179;-59
2022/10/26 13:16:12;;;;;;;3.58;1.30;;;;;;;;;;5026448;28;20029;-66
2022/10/26 13:18:48;;;;;;;8.63;0.97;;;;;;;;;;5021553;28;20036;-61
2022/10/26 13:21:19;;;;;;;21.27;1.67;;;;;;;;;;4999454;28;20026;-59
2022/10/26 13:23:46;;;;;;;29.55;2.03;;;;;;;;;;5008428;28;20037;-59
2022/10/26 13:26:18;;;;;;;33.88;2.50;;;;;;;;;;5020779;28;20126;-61
2022/10/26 13:28:52;;;;;;;32.90;2.60;;;;;;;;;;5032552;28;20087;-63
2022/10/26 13:31:19;;;;;;;36.22;1.92;;;;;;;;;;5032721;28;20033;-59
2022/10/26 13:33:46;;;;;;;39.72;2.80;;;;;;;;;;5032553;28;20123;-61
2022/10/26 13:36:27;;;;;;;27.65;3.20;;;;;;;;;;5004958;28;20768;-58
2022/10/26 13:38:55;;;;;;;62.95;3.92;;;;;;;;;;5008141;28;20030;-61
2022/10/26 13:41:34;;;;;;;78.78;5.95;;;;;;;;;;5000484;28;20487;-59
2022/10/26 13:44:04;;;;;;;73.63;6.10;;;;;;;;;;5010370;28;20480;-60
2022/10/26 13:46:34;;;;;;;39.78;4.55;;;;;;;;;;5027053;28;20041;-61
2022/10/26 13:49:13;;;;;;;55.95;5.07;;;;;;;;;;5009943;28;20035;-64
2022/10/26 13:51:43;;;;;;;49.70;4.35;;;;;;;;;;5011224;28;20048;-61
2022/10/26 13:54:22;;;;;;;47.70;5.00;;;;;;;;;;5011910;28;20034;-60
2022/10/26 13:57:02;;;;;;;51.80;4.55;;;;;;;;;;5010865;28;20033;-59
2022/10/26 13:59:30;;;;;;;53.35;4.45;;;;;;;;;;5012611;28;20483;-60
2022/10/26 14:02:17;;;;;;;42.35;3.75;;;;;;;;;;5023031;28;20041;-60
2022/10/26 14:04:48;;;;;;;39.75;3.50;;;;;;;;;;4992804;28;20026;-61
2022/10/26 14:07:19;;;;;;;43.03;4.35;;;;;;;;;;5019000;28;20038;-60
2022/10/26 14:09:51;;;;;;;32.42;3.97;;;;;;;;;;5015957;28;20104;-60
2022/10/26 14:12:17;;;;;;;38.08;3.35;;;;;;;;;;5004360;28;20036;-59
2022/10/26 14:14:45;;;;;;;31.17;3.42;;;;;;;;;;5011195;28;20500;-59
2022/10/26 14:17:22;;;;;;;42.85;3.25;;;;;;;;;;5010977;28;20526;-60
2022/10/26 14:19:49;;;;;;;36.78;3.78;;;;;;;;;;5005764;28;20048;-61
2022/10/26 14:22:23;;;;;;;50.67;4.03;;;;;;;;;;5016781;28;20026;-61
2022/10/26 14:24:57;;;;;;;41.08;3.60;;;;;;;;;;5005267;28;20502;-60
2022/10/26 14:27:25;;;;;;;47.05;3.72;;;;;;;;;;5004443;28;20126;-60
2022/10/26 14:29:53;;;;;;;37.67;3.65;;;;;;;;;;5014056;28;20395;-62
2022/10/26 14:32:27;;;;;;;33.25;2.97;;;;;;;;;;5011408;28;20046;-61
2022/10/26 14:34:54;;;;;;;28.13;3.35;;;;;;;;;;5016111;28;20030;-59
2022/10/26 14:37:24;;;;;;;18.27;2.28;;;;;;;;;;4991266;28;20096;-59
2022/10/26 14:39:51;;;;;;;36.15;3.13;;;;;;;;;;5010782;28;20033;-57
2022/10/26 14:42:18;;;;;;;25.90;2.30;;;;;;;;;;5011130;28;20068;-61
2022/10/26 14:44:45;;;;;;;21.92;2.47;;;;;;;;;;5025354;28;20120;-60
2022/10/26 14:47:24;;;;;;;22.40;2.35;;;;;;;;;;5011146;28;20091;-58
2022/10/26 14:49:51;;;;;;;19.98;1.90;;;;;;;;;;5009223;28;20034;-58
2022/10/26 14:52:22;;;;;;;28.98;2.75;;;;;;;;;;5010673;28;20117;-61
2022/10/26 14:55:02;;;;;;;32.75;2.28;;;;;;;;;;5009810;28;20052;-60
2022/10/26 14:57:37;;;;;;;27.80;2.97;;;;;;;;;;5009259;28;20423;-59